createdAt,value
2022-08-04T00:00:46.381Z,12.38
2022-08-04T00:03:20.973Z,12.33
2022-08-04T00:06:02.344Z,12.37
2022-08-04T00:08:46.083Z,12.39
2022-08-04T00:11:21.835Z,12.37
2022-08-04T00:14:02.508Z,12.33
2022-08-04T00:16:38.615Z,12.26
2022-08-04T00:19:12.915Z,12.28
2022-08-04T00:21:48.774Z,12.24
2022-08-04T00:24:19.755Z,12.19
2022-08-04T00:26:48.853Z,12.11
2022-08-04T00:29:18.245Z,12.21
2022-08-04T00:31:54.841Z,12.20
2022-08-04T00:34:28.743Z,12.18
2022-08-04T00:36:58.972Z,12.25
2022-08-04T00:39:28.244Z,12.19
2022-08-04T00:42:23.596Z,12.06
2022-08-04T00:45:04.825Z,12.06
2022-08-04T00:47:51.699Z,12.00
2022-08-04T00:50:29.982Z,11.91
2022-08-04T00:53:08.127Z,11.93
2022-08-04T00:56:20.808Z,11.86
2022-08-04T00:59:04.166Z,11.78
2022-08-04T01:01:57.829Z,11.80
2022-08-04T01:04:39.721Z,11.77
2022-08-04T01:07:34.969Z,11.74
2022-08-04T01:10:17.004Z,11.70
2022-08-04T01:13:02.236Z,11.63
2022-08-04T01:15:59.395Z,11.61
2022-08-04T01:18:50.136Z,11.49
2022-08-04T01:22:02.199Z,11.48
2022-08-04T01:25:02.191Z,11.39
2022-08-04T01:27:59.031Z,11.34
2022-08-04T01:30:32.036Z,11.38
2022-08-04T01:33:05.243Z,11.33
2022-08-04T01:35:47.456Z,11.34
2022-08-04T01:38:22.049Z,11.34
2022-08-04T01:40:55.258Z,11.30
2022-08-04T01:43:26.189Z,11.25
2022-08-04T01:46:00.736Z,11.32
2022-08-04T01:48:31.210Z,11.29
2022-08-04T01:51:07.100Z,11.17
2022-08-04T01:53:41.890Z,11.11
2022-08-04T01:56:12.492Z,11.14
2022-08-04T01:58:42.523Z,11.09
2022-08-04T02:01:15.083Z,11.07
2022-08-04T02:04:21.788Z,10.99
2022-08-04T02:06:48.457Z,11.01
2022-08-04T02:09:24.763Z,10.98
2022-08-04T02:12:04.805Z,10.93
2022-08-04T02:14:46.034Z,10.94
2022-08-04T02:17:25.031Z,10.91
2022-08-04T02:20:08.971Z,10.90
2022-08-04T02:22:43.339Z,10.86
2022-08-04T02:25:13.514Z,10.83
2022-08-04T02:27:59.167Z,10.83
2022-08-04T02:30:35.496Z,10.84
2022-08-04T02:33:08.985Z,10.85
2022-08-04T02:35:42.982Z,10.83
2022-08-04T02:38:25.630Z,10.80
2022-08-04T02:40:59.217Z,10.68
2022-08-04T02:43:50.679Z,10.68
2022-08-04T02:46:21.355Z,10.69
2022-08-04T02:48:53.249Z,10.64
2022-08-04T02:51:25.618Z,10.57
2022-08-04T02:53:56.729Z,10.55
2022-08-04T02:56:26.959Z,10.56
2022-08-04T02:59:00.566Z,10.60
2022-08-04T03:01:32.017Z,10.54
2022-08-04T03:04:22.115Z,10.58
2022-08-04T03:07:21.279Z,10.59
2022-08-04T03:10:31.351Z,10.54
2022-08-04T03:13:41.185Z,10.55
2022-08-04T03:16:42.611Z,10.52
2022-08-04T03:19:37.769Z,10.49
2022-08-04T03:23:13.092Z,10.46
2022-08-04T03:26:13.588Z,10.48
2022-08-04T03:29:36.194Z,10.49
2022-08-04T03:32:43.282Z,10.46
2022-08-04T03:35:49.923Z,10.41
2022-08-04T03:38:45.072Z,10.42
2022-08-04T03:42:03.939Z,10.43
2022-08-04T03:45:23.953Z,10.31
2022-08-04T03:48:15.365Z,10.26
2022-08-04T03:51:32.605Z,10.28
2022-08-04T03:54:34.121Z,10.30
2022-08-04T03:57:34.257Z,10.30
2022-08-04T04:00:10.827Z,10.23
2022-08-04T04:03:28.666Z,10.24
2022-08-04T04:06:53.975Z,10.17
2022-08-04T04:09:57.976Z,10.11
2022-08-04T04:13:16.112Z,10.11
2022-08-04T04:16:22.388Z,10.16
2022-08-04T04:19:03.296Z,10.15
2022-08-04T04:21:50.221Z,10.15
2022-08-04T04:24:40.631Z,10.18
2022-08-04T04:27:20.067Z,10.13
2022-08-04T04:30:05.671Z,10.09
2022-08-04T04:32:51.335Z,10.10
2022-08-04T04:35:35.703Z,10.04
2022-08-04T04:38:36.554Z,10.04
2022-08-04T04:41:34.202Z,9.98
2022-08-04T04:44:32.995Z,9.91
2022-08-04T04:47:11.557Z,9.93
2022-08-04T04:49:50.177Z,10.00
2022-08-04T04:52:28.709Z,9.92
2022-08-04T04:55:06.438Z,9.95
2022-08-04T04:57:54.348Z,9.88
2022-08-04T05:00:26.852Z,9.88
2022-08-04T05:03:30.259Z,9.80
2022-08-04T05:06:26.576Z,9.83
2022-08-04T05:09:27.753Z,9.76
2022-08-04T05:14:31.307Z,9.74
2022-08-04T05:15:20.587Z,9.70
2022-08-04T05:17:54.387Z,9.70
2022-08-04T05:20:29.068Z,9.81
2022-08-04T05:23:03.057Z,9.70
2022-08-04T05:25:37.719Z,9.71
2022-08-04T05:28:13.769Z,9.77
2022-08-04T05:30:48.998Z,9.72
2022-08-04T05:33:20.605Z,9.76
2022-08-04T05:36:21.838Z,9.79
2022-08-04T05:38:45.677Z,9.85
2022-08-04T05:41:16.141Z,9.83
2022-08-04T05:43:48.368Z,9.85
2022-08-04T05:46:19.016Z,9.91
2022-08-04T05:48:50.102Z,9.96
2022-08-04T05:51:20.189Z,10.02
2022-08-04T05:53:50.015Z,10.02
2022-08-04T05:56:19.733Z,10.07
2022-08-04T05:58:51.076Z,10.10
2022-08-04T06:01:21.646Z,10.16
2022-08-04T06:03:51.713Z,10.16
2022-08-04T06:06:23.095Z,10.23
2022-08-04T06:08:57.089Z,10.27
2022-08-04T06:11:29.500Z,10.26
2022-08-04T06:14:03.126Z,10.30
2022-08-04T06:16:38.896Z,10.39
2022-08-04T06:20:03.708Z,10.42
2022-08-04T06:22:04.575Z,10.46
2022-08-04T06:24:35.044Z,10.50
2022-08-04T06:27:10.809Z,10.50
2022-08-04T06:29:51.340Z,10.48
2022-08-04T06:32:34.668Z,10.51
2022-08-04T06:35:08.536Z,10.57
2022-08-04T06:37:42.807Z,10.68
2022-08-04T06:40:29.862Z,10.72
2022-08-04T06:43:03.187Z,10.80
2022-08-04T06:45:37.429Z,10.90
2022-08-04T06:48:14.491Z,10.99
2022-08-04T06:51:30.734Z,11.04
2022-08-04T06:53:47.214Z,11.11
2022-08-04T06:56:16.522Z,11.18
2022-08-04T06:58:47.272Z,11.29
2022-08-04T07:01:21.863Z,11.33
2022-08-04T07:03:53.404Z,11.33
2022-08-04T07:06:35.571Z,11.36
2022-08-04T07:09:08.751Z,11.48
2022-08-04T07:11:44.422Z,11.56
2022-08-04T07:14:14.694Z,11.57
2022-08-04T07:16:45.766Z,11.67
2022-08-04T07:19:18.880Z,11.80
2022-08-04T07:22:05.279Z,11.92
2022-08-04T07:24:45.472Z,11.96
2022-08-04T07:27:14.391Z,12.02
2022-08-04T07:29:45.990Z,12.15
2022-08-04T07:32:21.927Z,12.14
2022-08-04T07:34:51.609Z,12.14
2022-08-04T07:37:22.549Z,12.23
2022-08-04T07:40:08.883Z,12.28
2022-08-04T07:42:37.396Z,12.42
2022-08-04T07:45:06.672Z,12.50
2022-08-04T07:47:41.306Z,12.57
2022-08-04T07:50:34.029Z,12.65
2022-08-04T07:53:53.514Z,12.70
2022-08-04T07:56:04.818Z,12.66
2022-08-04T07:58:33.314Z,12.69
2022-08-04T08:01:01.866Z,12.85
2022-08-04T08:03:33.730Z,12.94
2022-08-04T08:06:31.319Z,13.02
2022-08-04T08:08:51.080Z,13.16
2022-08-04T08:11:20.828Z,13.18
2022-08-04T08:13:50.457Z,13.22
2022-08-04T08:16:21.277Z,13.39
2022-08-04T08:18:56.484Z,13.51
2022-08-04T08:21:25.588Z,13.54
2022-08-04T08:23:54.523Z,13.54
2022-08-04T08:26:23.061Z,13.67
2022-08-04T08:28:51.995Z,13.78
2022-08-04T08:31:20.618Z,13.85
2022-08-04T08:34:12.528Z,13.94
2022-08-04T08:36:48.285Z,13.96
2022-08-04T08:39:24.585Z,14.20
2022-08-04T08:42:30.090Z,14.27
2022-08-04T08:45:37.800Z,14.34
2022-08-04T08:48:41.124Z,14.38
2022-08-04T08:51:34.123Z,14.50
2022-08-04T08:54:38.477Z,14.52
2022-08-04T08:57:25.075Z,14.55
2022-08-04T09:00:05.532Z,14.51
2022-08-04T09:03:04.016Z,14.44
2022-08-04T09:05:47.496Z,14.65
2022-08-04T09:08:34.463Z,14.76
2022-08-04T09:11:10.399Z,15.30
2022-08-04T09:13:46.533Z,15.69
2022-08-04T09:16:20.747Z,15.65
2022-08-04T09:18:58.895Z,15.45
2022-08-04T09:21:35.929Z,15.35
2022-08-04T09:24:36.375Z,15.44
2022-08-04T09:27:03.212Z,15.55
2022-08-04T09:29:39.040Z,15.69
2022-08-04T09:32:18.769Z,15.69
2022-08-04T09:35:12.029Z,15.83
2022-08-04T09:37:50.380Z,15.85
2022-08-04T09:40:35.577Z,16.11
2022-08-04T09:43:29.582Z,15.83
2022-08-04T09:46:24.575Z,16.28
2022-08-04T09:48:59.198Z,16.55
2022-08-04T09:51:58.295Z,16.43
2022-08-04T09:54:39.939Z,15.86
2022-08-04T09:57:19.235Z,15.55
2022-08-04T10:00:08.735Z,15.23
2022-08-04T10:02:45.684Z,15.34
2022-08-04T10:05:22.114Z,15.94
2022-08-04T10:08:16.467Z,16.44
2022-08-04T10:10:57.261Z,17.02
2022-08-04T10:13:40.675Z,16.87
2022-08-04T10:16:37.512Z,16.35
2022-08-04T10:19:21.353Z,15.87
2022-08-04T10:22:28.741Z,16.22
2022-08-04T10:25:05.418Z,16.49
2022-08-04T10:27:59.143Z,16.47
2022-08-04T10:30:33.287Z,16.68
2022-08-04T10:33:14.385Z,16.93
2022-08-04T10:35:49.786Z,17.21
2022-08-04T10:38:33.525Z,17.26
2022-08-04T10:41:11.006Z,17.59
2022-08-04T10:43:47.886Z,17.88
2022-08-04T10:46:21.781Z,17.35
2022-08-04T10:49:00.682Z,17.25
2022-08-04T10:51:57.733Z,17.01
2022-08-04T10:54:30.785Z,17.29
2022-08-04T10:57:06.754Z,17.80
2022-08-04T10:59:44.522Z,18.09
2022-08-04T11:02:32.031Z,17.82
2022-08-04T11:05:12.747Z,17.93
2022-08-04T11:07:45.443Z,17.82
2022-08-04T11:10:16.485Z,17.52
2022-08-04T11:12:45.798Z,17.12
2022-08-04T11:15:22.453Z,17.65
2022-08-04T11:18:03.689Z,18.12
2022-08-04T11:20:44.518Z,18.53
2022-08-04T11:23:15.473Z,18.82
2022-08-04T11:25:52.824Z,18.86
2022-08-04T11:28:32.554Z,18.54
2022-08-04T11:31:07.294Z,18.76
2022-08-04T11:33:48.921Z,18.83
2022-08-04T11:36:24.262Z,18.94
2022-08-04T11:39:05.043Z,18.57
2022-08-04T11:41:46.116Z,19.32
2022-08-04T11:44:25.703Z,19.73
2022-08-04T11:46:58.484Z,18.90
2022-08-04T11:49:57.252Z,18.59
2022-08-04T11:52:30.063Z,18.27
2022-08-04T11:55:02.722Z,18.75
2022-08-04T11:57:36.457Z,19.65
2022-08-04T12:00:11.669Z,19.63
2022-08-04T12:03:00.261Z,19.20
2022-08-04T12:05:43.094Z,18.48
2022-08-04T12:08:40.988Z,18.33
2022-08-04T12:11:23.351Z,18.07
2022-08-04T12:14:11.813Z,17.94
2022-08-04T12:16:50.154Z,18.63
2022-08-04T12:19:25.686Z,18.21
2022-08-04T12:22:07.382Z,18.13
2022-08-04T12:25:03.553Z,17.99
2022-08-04T12:27:37.317Z,17.97
2022-08-04T12:30:59.876Z,17.72
2022-08-04T12:33:04.138Z,18.56
2022-08-04T12:36:05.256Z,19.43
2022-08-04T12:38:35.034Z,19.84
2022-08-04T12:41:05.062Z,20.13
2022-08-04T12:43:40.416Z,19.75
2022-08-04T12:46:13.259Z,19.20
2022-08-04T12:48:48.118Z,18.87
2022-08-04T12:52:06.972Z,19.09
2022-08-04T12:54:10.436Z,19.16
2022-08-04T12:56:42.484Z,20.04
2022-08-04T12:59:13.695Z,19.59
2022-08-04T13:02:06.777Z,19.19
2022-08-04T13:04:42.996Z,18.79
2022-08-04T13:07:26.955Z,18.60
2022-08-04T13:09:58.842Z,18.18
2022-08-04T13:12:32.715Z,18.61
2022-08-04T13:15:17.999Z,19.05
2022-08-04T13:17:57.317Z,19.84
2022-08-04T13:20:34.012Z,20.00
2022-08-04T13:23:08.881Z,20.28
2022-08-04T13:26:44.934Z,20.35
2022-08-04T13:28:36.049Z,20.19
2022-08-04T13:31:09.279Z,20.21
2022-08-04T13:33:40.910Z,19.92
2022-08-04T13:36:11.140Z,20.23
2022-08-04T13:38:47.366Z,20.25
2022-08-04T13:41:19.599Z,20.46
2022-08-04T13:44:17.470Z,20.56
2022-08-04T13:46:50.709Z,20.49
2022-08-04T13:49:42.484Z,20.89
2022-08-04T13:52:11.910Z,21.15
2022-08-04T13:54:43.999Z,21.34
2022-08-04T13:57:17.327Z,20.91
2022-08-04T13:59:53.751Z,21.30
2022-08-04T14:02:36.249Z,21.77
2022-08-04T14:05:18.099Z,21.79
2022-08-04T14:07:52.378Z,21.96
2022-08-04T14:10:21.209Z,21.40
2022-08-04T14:12:53.951Z,21.42
2022-08-04T14:16:01.600Z,21.14
2022-08-04T14:18:28.042Z,20.75
2022-08-04T14:21:06.498Z,20.29
2022-08-04T14:23:51.353Z,20.28
2022-08-04T14:26:32.467Z,20.22
2022-08-04T14:29:28.607Z,20.47
2022-08-04T14:32:22.836Z,21.09
2022-08-04T14:34:54.747Z,22.58
2022-08-04T14:37:27.409Z,22.56
2022-08-04T14:40:17.316Z,21.83
2022-08-04T14:42:55.452Z,21.17
2022-08-04T14:45:54.949Z,20.49
2022-08-04T14:48:25.576Z,19.78
2022-08-04T14:50:55.803Z,19.71
2022-08-04T14:53:26.603Z,19.32
2022-08-04T14:55:57.660Z,19.11
2022-08-04T14:58:34.859Z,19.01
2022-08-04T15:01:12.245Z,19.21
2022-08-04T15:03:49.772Z,19.10
2022-08-04T15:06:22.824Z,19.81
2022-08-04T15:08:53.851Z,20.18
2022-08-04T15:11:24.397Z,20.15
2022-08-04T15:13:54.974Z,21.01
2022-08-04T15:16:28.423Z,20.03
2022-08-04T15:18:57.954Z,21.83
2022-08-04T15:21:31.589Z,21.10
2022-08-04T15:24:01.123Z,22.33
2022-08-04T15:26:34.669Z,23.39
2022-08-04T15:29:16.601Z,21.53
2022-08-04T15:32:04.092Z,21.17
2022-08-04T15:34:49.677Z,23.07
2022-08-04T15:37:27.356Z,23.57
2022-08-04T15:40:10.693Z,22.96
2022-08-04T15:42:48.026Z,23.86
2022-08-04T15:46:33.034Z,24.29
2022-08-04T15:48:36.315Z,24.72
2022-08-04T15:51:16.855Z,26.04
2022-08-04T15:54:27.744Z,25.73
2022-08-04T15:57:01.295Z,24.64
2022-08-04T16:00:00.710Z,24.67
2022-08-04T16:02:47.244Z,25.40
2022-08-04T16:05:39.669Z,24.77
2022-08-04T16:08:16.667Z,25.32
2022-08-04T16:10:52.332Z,25.61
2022-08-04T16:13:24.179Z,25.55
2022-08-04T16:15:54.720Z,23.66
2022-08-04T16:18:40.313Z,22.60
2022-08-04T16:21:20.792Z,24.43
2022-08-04T16:24:03.700Z,25.38
2022-08-04T16:26:55.172Z,22.78
2022-08-04T16:29:40.082Z,20.53
2022-08-04T16:32:25.564Z,20.27
2022-08-04T16:35:00.418Z,19.73
2022-08-04T16:37:35.921Z,19.53
2022-08-04T16:40:33.363Z,19.04
2022-08-04T16:43:08.410Z,19.48
2022-08-04T16:45:49.670Z,19.56
2022-08-04T16:48:19.512Z,19.76
2022-08-04T16:50:51.591Z,19.75
2022-08-04T16:53:52.004Z,19.84
2022-08-04T16:56:19.062Z,20.22
2022-08-04T16:58:53.856Z,19.82
2022-08-04T17:01:32.645Z,19.93
2022-08-04T17:04:07.697Z,20.40
2022-08-04T17:06:42.161Z,21.21
2022-08-04T17:09:16.028Z,21.01
2022-08-04T17:11:46.966Z,20.82
2022-08-04T17:14:15.974Z,21.46
2022-08-04T17:16:45.438Z,22.04
2022-08-04T17:19:25.052Z,24.55
2022-08-04T17:22:04.037Z,25.86
2022-08-04T17:24:41.258Z,25.66
2022-08-04T17:28:19.607Z,26.42
2022-08-04T17:30:00.727Z,25.58
2022-08-04T17:32:29.749Z,23.80
2022-08-04T17:35:03.619Z,21.66
2022-08-04T17:37:39.671Z,20.51
2022-08-04T17:46:28.607Z,19.07
2022-08-04T17:49:00.284Z,19.05
2022-08-04T17:52:04.807Z,19.28
2022-08-04T17:54:38.819Z,20.11
2022-08-04T17:57:25.845Z,20.71
2022-08-04T17:59:59.109Z,23.22
2022-08-04T18:02:32.446Z,25.53
2022-08-04T18:05:07.198Z,24.97
2022-08-04T18:08:40.349Z,25.51
2022-08-04T18:10:52.548Z,24.23
2022-08-04T18:13:28.999Z,25.10
2022-08-04T18:16:05.333Z,24.76
2022-08-04T18:18:35.328Z,24.89
2022-08-04T18:21:07.151Z,24.20
2022-08-04T18:23:35.443Z,22.94
2022-08-04T18:26:23.922Z,22.26
2022-08-04T18:28:54.329Z,21.74
2022-08-04T18:31:23.014Z,20.45
2022-08-04T18:33:57.125Z,19.74
2022-08-04T18:36:32.614Z,19.45
2022-08-04T18:39:13.321Z,18.94
2022-08-04T18:42:01.110Z,18.78
2022-08-04T18:44:51.745Z,18.86
2022-08-04T18:47:23.523Z,18.54
2022-08-04T18:51:00.733Z,18.36
2022-08-04T18:52:45.034Z,18.33
2022-08-04T18:55:55.184Z,18.16
2022-08-04T18:58:07.298Z,18.08
2022-08-04T19:00:45.523Z,18.20
2022-08-04T19:03:16.638Z,18.29
2022-08-04T19:05:52.674Z,18.24
2022-08-04T19:08:34.869Z,18.15
2022-08-04T19:11:37.184Z,18.13
2022-08-04T19:13:58.677Z,18.17
2022-08-04T19:16:31.742Z,18.23
2022-08-04T19:19:03.301Z,18.05
2022-08-04T19:21:59.701Z,18.01
2022-08-04T19:24:32.642Z,17.78
2022-08-04T19:27:07.093Z,17.83
2022-08-04T19:29:41.097Z,17.60
2022-08-04T19:32:16.309Z,17.57
2022-08-04T19:34:47.582Z,17.58
2022-08-04T19:40:10.264Z,17.30
2022-08-04T19:42:40.288Z,17.24
2022-08-04T19:45:09.590Z,17.05
2022-08-04T19:48:17.555Z,17.01
2022-08-04T19:50:36.826Z,16.96
2022-08-04T19:53:18.686Z,16.79
2022-08-04T19:55:50.500Z,16.66
2022-08-04T19:58:26.302Z,16.75
2022-08-04T20:00:56.646Z,16.67
2022-08-04T20:04:09.865Z,16.63
2022-08-04T20:06:15.943Z,16.41
2022-08-04T20:08:48.116Z,16.36
2022-08-04T20:11:21.110Z,16.36
2022-08-04T20:13:54.715Z,16.24
2022-08-04T20:16:29.676Z,16.12
2022-08-04T20:19:03.886Z,15.99
2022-08-04T20:21:53.560Z,15.85
2022-08-04T20:24:38.799Z,15.72
2022-08-04T20:27:15.036Z,15.69
2022-08-04T20:29:48.773Z,15.60
2022-08-04T20:32:22.275Z,15.61
2022-08-04T20:34:56.145Z,15.51
2022-08-04T20:37:56.726Z,15.49
2022-08-04T20:40:30.130Z,15.41
2022-08-04T20:42:59.418Z,15.35
2022-08-04T20:45:31.845Z,15.33
2022-08-04T20:48:16.789Z,15.37
2022-08-04T20:50:51.248Z,15.30
2022-08-04T20:53:19.817Z,15.19
2022-08-04T20:56:01.224Z,15.16
2022-08-04T20:58:31.451Z,15.14
2022-08-04T21:01:00.606Z,15.07
2022-08-04T21:03:49.458Z,15.02
2022-08-04T21:06:23.328Z,15.03
2022-08-04T21:08:57.277Z,14.88
2022-08-04T21:11:32.863Z,15.03
2022-08-04T21:14:02.680Z,14.99
2022-08-04T21:16:55.187Z,14.94
2022-08-04T21:19:26.959Z,14.94
2022-08-04T21:21:57.226Z,14.85
2022-08-04T21:24:30.499Z,14.65
2022-08-04T21:27:01.808Z,14.58
2022-08-04T21:32:21.053Z,14.48
2022-08-04T21:35:00.156Z,14.57
2022-08-04T21:37:57.762Z,14.45
2022-08-04T21:40:26.185Z,14.30
2022-08-04T21:43:04.888Z,14.19
2022-08-04T21:45:38.916Z,14.14
2022-08-04T21:48:14.296Z,14.10
2022-08-04T21:50:43.294Z,14.08
2022-08-04T21:53:14.630Z,14.10
2022-08-04T21:56:05.657Z,14.18
2022-08-04T21:58:40.532Z,14.26
2022-08-04T22:01:14.058Z,14.14
2022-08-04T22:04:02.668Z,14.09
2022-08-04T22:06:31.175Z,14.01
2022-08-04T22:09:01.758Z,14.02
2022-08-04T22:11:43.792Z,14.07
2022-08-04T22:14:27.679Z,14.02
2022-08-04T22:16:58.886Z,14.02
2022-08-04T22:19:50.005Z,13.85
2022-08-04T22:22:25.124Z,13.92
2022-08-04T22:24:58.650Z,13.88
2022-08-04T22:27:47.410Z,13.76
2022-08-04T22:30:18.184Z,13.74
2022-08-04T22:32:47.411Z,13.69
2022-08-04T22:35:42.754Z,13.69
2022-08-04T22:38:25.529Z,13.63
2022-08-04T22:41:02.373Z,13.66
2022-08-04T22:43:34.789Z,13.68
2022-08-04T22:46:06.725Z,13.56
2022-08-04T22:48:38.650Z,13.54
2022-08-04T22:51:09.120Z,13.37
2022-08-04T22:53:37.780Z,13.31
2022-08-04T22:56:11.130Z,13.28
2022-08-04T22:58:45.074Z,13.14
2022-08-04T23:01:16.422Z,13.16
2022-08-04T23:03:55.137Z,13.13
2022-08-04T23:06:28.345Z,13.11
2022-08-04T23:08:57.664Z,13.11
2022-08-04T23:11:33.360Z,13.03
2022-08-04T23:14:04.865Z,13.03
2022-08-04T23:16:40.849Z,13.00
2022-08-04T23:19:15.257Z,13.03
2022-08-04T23:21:47.737Z,12.87
2022-08-04T23:24:30.540Z,12.76
2022-08-04T23:27:01.639Z,12.68
2022-08-04T23:29:52.358Z,12.64
2022-08-04T23:32:20.181Z,12.57
2022-08-04T23:34:48.937Z,12.49
2022-08-04T23:37:17.785Z,12.50
2022-08-04T23:40:14.373Z,12.48
2022-08-04T23:42:36.465Z,12.39
2022-08-04T23:45:12.266Z,12.30
2022-08-04T23:48:15.514Z,12.27
2022-08-04T23:50:33.232Z,12.28
2022-08-04T23:53:01.766Z,12.24
2022-08-04T23:55:33.363Z,12.18
2022-08-04T23:58:18.509Z,12.10
